Beaver Creek, Illinois
Current Conditions -  °F | °C
As of 8:35 AM on Sunday 23 Nov 2014 (Local Time) from K3LF Reporting Station
Overcast Overcast  
Wind Chill: 10°   Ceiling: 1500
Heat Index: 10°   Visibility: 10mi
Dew Point:   Wind: 13mph
Humidity: 82%   Direction: 150°SSE
Pressure: 29.72"   Gusts: NA
Location:  38.895°N, 89.397°W
Report Text: K3LF 231435Z AUTO 15011KT 10SM OVC015 10/08 A2972 RMK AO2 T01040075
Loading
Personal Weather Stations






























Interactive Weather Map New forecast layout! Learn more

10-Day Weather Forecast

Advertisements
Track Severe Weather on mobile